sensor_id;sensor_type;location;lat;lon;timestamp;pressure;altitude;pressure_sealevel;temperature;humidity
7337;BME280;54510;42.016;23.098;2023-04-25T00:01:08;-21628.00;;;18.00;71.35
7337;BME280;54510;42.016;23.098;2023-04-25T00:03:34;-21634.34;;;18.23;70.80
7337;BME280;54510;42.016;23.098;2023-04-25T00:06:00;-21634.47;;;18.24;71.34
7337;BME280;54510;42.016;23.098;2023-04-25T00:08:29;-21635.44;;;18.27;71.45
7337;BME280;54510;42.016;23.098;2023-04-25T00:10:55;-21632.69;;;18.17;71.52
7337;BME280;54510;42.016;23.098;2023-04-25T00:13:21;-21632.00;;;18.14;71.16
7337;BME280;54510;42.016;23.098;2023-04-25T00:15:46;-21636.53;;;18.31;70.62
7337;BME280;54510;42.016;23.098;2023-04-25T00:18:13;-21632.41;;;18.16;70.92
7337;BME280;54510;42.016;23.098;2023-04-25T00:20:38;-21619.22;;;17.67;72.62
7337;BME280;54510;42.016;23.098;2023-04-25T00:23:04;-21624.16;;;17.86;72.09
7337;BME280;54510;42.016;23.098;2023-04-25T00:25:30;-21627.47;;;17.98;71.33
7337;BME280;54510;42.016;23.098;2023-04-25T00:27:55;-21627.75;;;17.99;71.17
7337;BME280;54510;42.016;23.098;2023-04-25T00:30:20;-21626.63;;;17.95;71.25
7337;BME280;54510;42.016;23.098;2023-04-25T00:32:45;-21624.03;;;17.85;72.15
7337;BME280;54510;42.016;23.098;2023-04-25T00:35:11;-21621.28;;;17.75;72.76
7337;BME280;54510;42.016;23.098;2023-04-25T00:37:36;-21619.63;;;17.69;73.48
7337;BME280;54510;42.016;23.098;2023-04-25T00:40:02;-21614.38;;;17.50;74.92
7337;BME280;54510;42.016;23.098;2023-04-25T00:42:31;-21615.34;;;17.53;74.03
7337;BME280;54510;42.016;23.098;2023-04-25T00:44:56;-21614.81;;;17.51;74.17
7337;BME280;54510;42.016;23.098;2023-04-25T00:47:23;-21614.53;;;17.50;74.22
7337;BME280;54510;42.016;23.098;2023-04-25T00:49:48;-21612.59;;;17.43;74.99
7337;BME280;54510;42.016;23.098;2023-04-25T00:52:14;-21614.38;;;17.50;74.81
7337;BME280;54510;42.016;23.098;2023-04-25T00:54:39;-21620.03;;;17.70;74.13
7337;BME280;54510;42.016;23.098;2023-04-25T00:57:05;-21620.03;;;17.70;73.71
7337;BME280;54510;42.016;23.098;2023-04-25T00:59:30;-21613.69;;;17.47;74.37
7337;BME280;54510;42.016;23.098;2023-04-25T01:01:55;-21611.91;;;17.41;74.56
7337;BME280;54510;42.016;23.098;2023-04-25T01:04:21;-21615.75;;;17.55;73.89
7337;BME280;54510;42.016;23.098;2023-04-25T01:06:46;-21618.81;;;17.66;73.94
7337;BME280;54510;42.016;23.098;2023-04-25T01:09:13;-21617.97;;;17.63;73.10
7337;BME280;54510;42.016;23.098;2023-04-25T01:11:38;-21621.81;;;17.77;72.53
7337;BME280;54510;42.016;23.098;2023-04-25T01:14:05;-21615.91;;;17.55;73.50
7337;BME280;54510;42.016;23.098;2023-04-25T01:16:30;-21621.41;;;17.75;72.95
7337;BME280;54510;42.016;23.098;2023-04-25T01:18:56;-21616.72;;;17.58;73.75
7337;BME280;54510;42.016;23.098;2023-04-25T01:21:21;-21610.41;;;17.35;74.15
7337;BME280;54510;42.016;23.098;2023-04-25T01:23:47;-21611.09;;;17.37;74.51
7337;BME280;54510;42.016;23.098;2023-04-25T01:26:12;-21613.28;;;17.46;74.28
7337;BME280;54510;42.016;23.098;2023-04-25T01:28:38;-21618.66;;;17.65;73.79
7337;BME280;54510;42.016;23.098;2023-04-25T01:31:06;-21618.53;;;17.65;73.25
7337;BME280;54510;42.016;23.098;2023-04-25T01:33:31;-21615.34;;;17.53;72.91
7337;BME280;54510;42.016;23.098;2023-04-25T01:35:57;-21608.75;;;17.29;73.24
7337;BME280;54510;42.016;23.098;2023-04-25T01:38:22;-21602.41;;;17.06;74.07
7337;BME280;54510;42.016;23.098;2023-04-25T01:40:48;-21606.81;;;17.22;74.82
7337;BME280;54510;42.016;23.098;2023-04-25T01:43:14;-21608.47;;;17.28;73.76
7337;BME280;54510;42.016;23.098;2023-04-25T01:45:39;-21591.81;;;16.67;74.31
7337;BME280;54510;42.016;23.098;2023-04-25T01:48:06;-21594.00;;;16.75;74.74
7337;BME280;54510;42.016;23.098;2023-04-25T01:50:31;-21595.94;;;16.82;72.71
7337;BME280;54510;42.016;23.098;2023-04-25T01:52:57;-21587.81;;;16.52;73.24
7337;BME280;54510;42.016;23.098;2023-04-25T01:55:22;-21587.25;;;16.50;74.48
7337;BME280;54510;42.016;23.098;2023-04-25T01:57:47;-21603.25;;;17.09;72.73
7337;BME280;54510;42.016;23.098;2023-04-25T02:00:13;-21599.38;;;16.94;73.00
7337;BME280;54510;42.016;23.098;2023-04-25T02:02:38;-21591.00;;;16.64;73.46
7337;BME280;54510;42.016;23.098;2023-04-25T02:05:03;-21586.16;;;16.46;74.80
7337;BME280;54510;42.016;23.098;2023-04-25T02:07:29;-21590.03;;;16.60;74.62
7337;BME280;54510;42.016;23.098;2023-04-25T02:09:54;-21592.50;;;16.69;74.16
7337;BME280;54510;42.016;23.098;2023-04-25T02:12:20;-21576.09;;;16.09;76.23
7337;BME280;54510;42.016;23.098;2023-04-25T02:14:45;-21574.84;;;16.04;76.40
7337;BME280;54510;42.016;23.098;2023-04-25T02:17:10;-21576.09;;;16.09;76.51
7337;BME280;54510;42.016;23.098;2023-04-25T02:19:37;-21571.28;;;15.91;76.22
7337;BME280;54510;42.016;23.098;2023-04-25T02:22:02;-21572.38;;;15.95;76.24
7337;BME280;54510;42.016;23.098;2023-04-25T02:24:28;-21566.84;;;15.75;76.90
7337;BME280;54510;42.016;23.098;2023-04-25T02:26:53;-21565.88;;;15.71;77.28
7337;BME280;54510;42.016;23.098;2023-04-25T02:29:20;-21564.66;;;15.67;77.73
7337;BME280;54510;42.016;23.098;2023-04-25T02:31:45;-21567.97;;;15.79;77.37
7337;BME280;54510;42.016;23.098;2023-04-25T02:34:11;-21571.53;;;15.92;76.49
7337;BME280;54510;42.016;23.098;2023-04-25T02:36:36;-21566.84;;;15.75;76.80
7337;BME280;54510;42.016;23.098;2023-04-25T02:39:01;-21569.88;;;15.86;76.56
7337;BME280;54510;42.016;23.098;2023-04-25T02:41:27;-21569.63;;;15.85;76.69
7337;BME280;54510;42.016;23.098;2023-04-25T02:43:53;-21570.84;;;15.90;76.27
7337;BME280;54510;42.016;23.098;2023-04-25T02:46:18;-21566.16;;;15.72;77.09
7337;BME280;54510;42.016;23.098;2023-04-25T02:48:43;-21566.59;;;15.74;77.23
7337;BME280;54510;42.016;23.098;2023-04-25T02:51:09;-21568.66;;;15.82;77.07
7337;BME280;54510;42.016;23.098;2023-04-25T02:53:34;-21571.13;;;15.91;76.64
7337;BME280;54510;42.016;23.098;2023-04-25T02:55:59;-21571.28;;;15.91;76.30
7337;BME280;54510;42.016;23.098;2023-04-25T02:58:24;-21572.94;;;15.97;76.00
7337;BME280;54510;42.016;23.098;2023-04-25T03:00:50;-21575.41;;;16.06;75.96
7337;BME280;54510;42.016;23.098;2023-04-25T03:03:15;-21569.47;;;15.85;75.93
7337;BME280;54510;42.016;23.098;2023-04-25T03:05:43;-21569.63;;;15.85;76.39
7337;BME280;54510;42.016;23.098;2023-04-25T03:08:08;-21575.69;;;16.07;75.82
7337;BME280;54510;42.016;23.098;2023-04-25T03:10:33;-21575.28;;;16.06;75.32
7337;BME280;54510;42.016;23.098;2023-04-25T03:12:59;-21570.31;;;15.88;75.89
7337;BME280;54510;42.016;23.098;2023-04-25T03:15:24;-21564.25;;;15.65;76.63
7337;BME280;54510;42.016;23.098;2023-04-25T03:17:49;-21561.88;;;15.57;77.38
7337;BME280;54510;42.016;23.098;2023-04-25T03:20:14;-21557.75;;;15.41;77.67
7337;BME280;54510;42.016;23.098;2023-04-25T03:22:41;-21558.03;;;15.42;78.43
7337;BME280;54510;42.016;23.098;2023-04-25T03:25:06;-21561.34;;;15.55;77.86
7337;BME280;54510;42.016;23.098;2023-04-25T03:27:31;-21555.53;;;15.33;78.81
7337;BME280;54510;42.016;23.098;2023-04-25T03:29:57;-21553.34;;;15.25;78.68
7337;BME280;54510;42.016;23.098;2023-04-25T03:32:22;-21554.16;;;15.28;78.86
7337;BME280;54510;42.016;23.098;2023-04-25T03:34:47;-21546.03;;;14.98;79.59
7337;BME280;54510;42.016;23.098;2023-04-25T03:37:12;-21553.34;;;15.25;79.02
7337;BME280;54510;42.016;23.098;2023-04-25T03:39:38;-21555.81;;;15.34;78.56
7337;BME280;54510;42.016;23.098;2023-04-25T03:42:03;-21563.13;;;15.61;77.76
7337;BME280;54510;42.016;23.098;2023-04-25T03:44:29;-21567.00;;;15.75;77.64
7337;BME280;54510;42.016;23.098;2023-04-25T03:46:54;-21568.78;;;15.82;77.39
7337;BME280;54510;42.016;23.098;2023-04-25T03:49:19;-21572.38;;;15.95;76.85
7337;BME280;54510;42.016;23.098;2023-04-25T03:51:44;-21572.25;;;15.95;76.37
7337;BME280;54510;42.016;23.098;2023-04-25T03:54:10;-21570.44;;;15.88;76.70
7337;BME280;54510;42.016;23.098;2023-04-25T03:56:35;-21571.13;;;15.91;77.25
7337;BME280;54510;42.016;23.098;2023-04-25T03:59:00;-21563.53;;;15.63;77.70
7337;BME280;54510;42.016;23.098;2023-04-25T04:01:26;-21564.50;;;15.66;77.67
7337;BME280;54510;42.016;23.098;2023-04-25T04:03:51;-21568.78;;;15.82;77.41
7337;BME280;54510;42.016;23.098;2023-04-25T04:06:16;-21569.19;;;15.84;77.29
7337;BME280;54510;42.016;23.098;2023-04-25T04:08:41;-21571.53;;;15.92;77.36
7337;BME280;54510;42.016;23.098;2023-04-25T04:11:07;-21574.03;;;16.01;76.79
7337;BME280;54510;42.016;23.098;2023-04-25T04:13:32;-21574.84;;;16.04;77.19
7337;BME280;54510;42.016;23.098;2023-04-25T04:15:57;-21577.75;;;16.15;77.28
7337;BME280;54510;42.016;23.098;2023-04-25T04:18:23;-21571.81;;;15.93;77.73
7337;BME280;54510;42.016;23.098;2023-04-25T04:20:48;-21567.69;;;15.78;78.03
7337;BME280;54510;42.016;23.098;2023-04-25T04:23:13;-21570.03;;;15.87;77.90
7337;BME280;54510;42.016;23.098;2023-04-25T04:25:39;-21569.47;;;15.85;77.86
7337;BME280;54510;42.016;23.098;2023-04-25T04:28:05;-21568.78;;;15.82;78.25
7337;BME280;54510;42.016;23.098;2023-04-25T04:30:31;-21568.50;;;15.81;78.09
7337;BME280;54510;42.016;23.098;2023-04-25T04:32:56;-21574.16;;;16.02;77.39
7337;BME280;54510;42.016;23.098;2023-04-25T04:35:22;-21568.09;;;15.79;77.44
7337;BME280;54510;42.016;23.098;2023-04-25T04:37:48;-21567.41;;;15.77;78.15
7337;BME280;54510;42.016;23.098;2023-04-25T04:40:14;-21572.09;;;15.94;77.18
7337;BME280;54510;42.016;23.098;2023-04-25T04:42:41;-21574.72;;;16.04;77.76
7337;BME280;54510;42.016;23.098;2023-04-25T04:45:06;-21573.63;;;16.00;77.34
7337;BME280;54510;42.016;23.098;2023-04-25T04:47:31;-21575.00;;;16.05;77.44
7337;BME280;54510;42.016;23.098;2023-04-25T04:49:57;-21573.75;;;16.00;77.99
7337;BME280;54510;42.016;23.098;2023-04-25T04:52:22;-21601.19;;;17.01;75.21
7337;BME280;54510;42.016;23.098;2023-04-25T04:54:48;-21613.56;;;17.47;73.58
7337;BME280;54510;42.016;23.098;2023-04-25T04:57:13;-21620.44;;;17.72;71.42
7337;BME280;54510;42.016;23.098;2023-04-25T04:59:38;-21616.47;;;17.57;71.48
7337;BME280;54510;42.016;23.098;2023-04-25T05:02:04;-21612.59;;;17.43;71.12
7337;BME280;54510;42.016;23.098;2023-04-25T05:04:29;-21612.88;;;17.44;70.68
7337;BME280;54510;42.016;23.098;2023-04-25T05:06:54;-21610.81;;;17.36;72.54
7337;BME280;54510;42.016;23.098;2023-04-25T05:09:19;-21611.38;;;17.38;73.27
7337;BME280;54510;42.016;23.098;2023-04-25T05:11:45;-21610.94;;;17.37;72.96
7337;BME280;54510;42.016;23.098;2023-04-25T05:14:10;-21616.88;;;17.59;70.55
7337;BME280;54510;42.016;23.098;2023-04-25T05:16:36;-21604.91;;;17.15;72.48
7337;BME280;54510;42.016;23.098;2023-04-25T05:19:01;-21601.31;;;17.02;72.00
7337;BME280;54510;42.016;23.098;2023-04-25T05:21:26;-21609.72;;;17.32;71.49
7337;BME280;54510;42.016;23.098;2023-04-25T05:23:52;-21611.91;;;17.41;70.78
7337;BME280;54510;42.016;23.098;2023-04-25T05:26:17;-21619.91;;;17.70;70.35
7337;BME280;54510;42.016;23.098;2023-04-25T05:28:42;-21628.28;;;18.01;69.35
7337;BME280;54510;42.016;23.098;2023-04-25T05:31:11;-21624.72;;;17.88;69.47
7337;BME280;54510;42.016;23.098;2023-04-25T05:33:36;-21622.78;;;17.81;69.94
7337;BME280;54510;42.016;23.098;2023-04-25T05:36:02;-21629.13;;;18.04;69.66
7337;BME280;54510;42.016;23.098;2023-04-25T05:38:27;-21625.25;;;17.90;69.09
7337;BME280;54510;42.016;23.098;2023-04-25T05:40:52;-21632.41;;;18.16;67.98
7337;BME280;54510;42.016;23.098;2023-04-25T05:43:17;-21632.69;;;18.17;67.54
7337;BME280;54510;42.016;23.098;2023-04-25T05:45:43;-21636.53;;;18.31;67.16
7337;BME280;54510;42.016;23.098;2023-04-25T05:48:08;-21635.44;;;18.27;66.15
7337;BME280;54510;42.016;23.098;2023-04-25T05:50:33;-21629.38;;;18.05;67.01
7337;BME280;54510;42.016;23.098;2023-04-25T05:52:58;-21623.19;;;17.82;67.09
7337;BME280;54510;42.016;23.098;2023-04-25T05:55:24;-21621.41;;;17.75;67.22
7337;BME280;54510;42.016;23.098;2023-04-25T05:57:49;-21616.19;;;17.56;67.98
7337;BME280;54510;42.016;23.098;2023-04-25T06:00:15;-21613.28;;;17.46;71.86
7337;BME280;54510;42.016;23.098;2023-04-25T06:02:40;-21609.31;;;17.31;72.13
7337;BME280;54510;42.016;23.098;2023-04-25T06:05:06;-21629.94;;;18.07;70.85
7337;BME280;54510;42.016;23.098;2023-04-25T06:07:31;-21627.31;;;17.97;69.41
7337;BME280;54510;42.016;23.098;2023-04-25T06:09:57;-21631.59;;;18.13;67.91
7337;BME280;54510;42.016;23.098;2023-04-25T06:12:22;-21641.34;;;18.49;66.14
7337;BME280;54510;42.016;23.098;2023-04-25T06:14:47;-21649.19;;;18.78;65.51
7337;BME280;54510;42.016;23.098;2023-04-25T06:17:13;-21655.09;;;19.00;64.91
7337;BME280;54510;42.016;23.098;2023-04-25T06:19:38;-21657.69;;;19.09;64.84
7337;BME280;54510;42.016;23.098;2023-04-25T06:22:03;-21665.78;;;19.39;63.99
7337;BME280;54510;42.016;23.098;2023-04-25T06:24:29;-21661.94;;;19.25;64.64
7337;BME280;54510;42.016;23.098;2023-04-25T06:26:54;-21659.91;;;19.17;63.70
7337;BME280;54510;42.016;23.098;2023-04-25T06:29:19;-21658.38;;;19.12;64.29
7337;BME280;54510;42.016;23.098;2023-04-25T06:31:44;-21661.28;;;19.22;64.24
7337;BME280;54510;42.016;23.098;2023-04-25T06:34:10;-21661.94;;;19.25;64.21
7337;BME280;54510;42.016;23.098;2023-04-25T06:36:35;-21662.50;;;19.27;63.61
7337;BME280;54510;42.016;23.098;2023-04-25T06:58:39;-21692.28;;;20.37;59.87
7337;BME280;54510;42.016;23.098;2023-04-25T07:01:04;-21686.50;;;20.16;60.23
7337;BME280;54510;42.016;23.098;2023-04-25T07:03:29;-21693.38;;;20.41;59.82
7337;BME280;54510;42.016;23.098;2023-04-25T07:05:55;-21686.25;;;20.15;60.22
7337;BME280;54510;42.016;23.098;2023-04-25T07:08:20;-21685.00;;;20.10;58.84
7337;BME280;54510;42.016;23.098;2023-04-25T07:10:46;-21697.22;;;20.55;58.51
7337;BME280;54510;42.016;23.098;2023-04-25T07:13:11;-21698.84;;;20.61;55.66
7337;BME280;54510;42.016;23.098;2023-04-25T07:15:36;-21701.88;;;20.72;54.49
7337;BME280;54510;42.016;23.098;2023-04-25T07:18:02;-21707.91;;;20.95;53.20
7337;BME280;54510;42.016;23.098;2023-04-25T07:20:27;-21723.09;;;21.51;50.26
7337;BME280;54510;42.016;23.098;2023-04-25T07:22:52;-21712.97;;;21.13;48.55
7337;BME280;54510;42.016;23.098;2023-04-25T07:25:18;-21708.31;;;20.96;49.23
7337;BME280;54510;42.016;23.098;2023-04-25T07:27:43;-21712.69;;;21.12;50.08
7337;BME280;54510;42.016;23.098;2023-04-25T07:30:09;-21725.69;;;21.60;47.65
7337;BME280;54510;42.016;23.098;2023-04-25T07:32:34;-21723.09;;;21.51;49.02
7337;BME280;54510;42.016;23.098;2023-04-25T07:35:00;-21722.69;;;21.49;48.54
7337;BME280;54510;42.016;23.098;2023-04-25T07:37:26;-21724.34;;;21.55;47.45
7337;BME280;54510;42.016;23.098;2023-04-25T07:39:51;-21728.97;;;21.73;47.66
7337;BME280;54510;42.016;23.098;2023-04-25T07:42:17;-21723.91;;;21.54;48.13
7337;BME280;54510;42.016;23.098;2023-04-25T07:44:42;-21722.41;;;21.48;47.85
7337;BME280;54510;42.016;23.098;2023-04-25T07:47:07;-21718.03;;;21.32;48.41
7337;BME280;54510;42.016;23.098;2023-04-25T07:49:33;-21719.13;;;21.36;48.51
7337;BME280;54510;42.016;23.098;2023-04-25T07:51:59;-21719.69;;;21.38;48.50
7337;BME280;54510;42.016;23.098;2023-04-25T07:54:25;-21715.97;;;21.24;47.47
7337;BME280;54510;42.016;23.098;2023-04-25T07:56:50;-21714.47;;;21.19;48.05
7337;BME280;54510;42.016;23.098;2023-04-25T07:59:15;-21720.78;;;21.42;49.21
7337;BME280;54510;42.016;23.098;2023-04-25T08:01:41;-21723.50;;;21.52;49.20
7337;BME280;54510;42.016;23.098;2023-04-25T08:04:06;-21722.69;;;21.49;49.63
7337;BME280;54510;42.016;23.098;2023-04-25T08:06:31;-21722.69;;;21.49;49.30
7337;BME280;54510;42.016;23.098;2023-04-25T08:08:57;-21730.75;;;21.79;48.82
7337;BME280;54510;42.016;23.098;2023-04-25T08:11:22;-21727.63;;;21.67;46.32
7337;BME280;54510;42.016;23.098;2023-04-25T08:13:47;-21734.72;;;21.94;47.40
7337;BME280;54510;42.016;23.098;2023-04-25T08:16:13;-21732.69;;;21.86;47.32
7337;BME280;54510;42.016;23.098;2023-04-25T08:18:38;-21732.13;;;21.84;46.00
7337;BME280;54510;42.016;23.098;2023-04-25T08:21:03;-21733.38;;;21.89;46.61
7337;BME280;54510;42.016;23.098;2023-04-25T08:23:28;-21735.00;;;21.95;45.52
7337;BME280;54510;42.016;23.098;2023-04-25T08:25:54;-21734.44;;;21.93;46.67
7337;BME280;54510;42.016;23.098;2023-04-25T08:28:19;-21738.00;;;22.06;44.65
7337;BME280;54510;42.016;23.098;2023-04-25T08:30:44;-21729.53;;;21.75;44.46
7337;BME280;54510;42.016;23.098;2023-04-25T08:33:10;-21722.81;;;21.50;45.27
7337;BME280;54510;42.016;23.098;2023-04-25T08:35:36;-21728.16;;;21.70;44.75
7337;BME280;54510;42.016;23.098;2023-04-25T08:38:01;-21734.72;;;21.94;45.56
7337;BME280;54510;42.016;23.098;2023-04-25T08:40:27;-21739.38;;;22.11;46.45
7337;BME280;54510;42.016;23.098;2023-04-25T08:42:55;-21739.66;;;22.12;47.14
7337;BME280;54510;42.016;23.098;2023-04-25T08:45:21;-21753.59;;;22.64;46.14
7337;BME280;54510;42.016;23.098;2023-04-25T08:47:47;-21764.13;;;23.03;43.79
7337;BME280;54510;42.016;23.098;2023-04-25T08:50:13;-21762.06;;;22.95;43.89
7337;BME280;54510;42.016;23.098;2023-04-25T08:52:45;-21760.16;;;22.88;43.04
7337;BME280;54510;42.016;23.098;2023-04-25T08:55:13;-21760.16;;;22.88;42.78
7337;BME280;54510;42.016;23.098;2023-04-25T08:57:39;-21757.28;;;22.77;43.75
7337;BME280;54510;42.016;23.098;2023-04-25T09:00:07;-21756.34;;;22.74;43.40
7337;BME280;54510;42.016;23.098;2023-04-25T09:02:33;-21760.03;;;22.88;41.04
7337;BME280;54510;42.016;23.098;2023-04-25T09:04:58;-21758.50;;;22.82;40.74
7337;BME280;54510;42.016;23.098;2023-04-25T09:07:24;-21746.50;;;22.37;41.09
7337;BME280;54510;42.016;23.098;2023-04-25T09:09:50;-21738.69;;;22.09;41.45
7337;BME280;54510;42.016;23.098;2023-04-25T09:12:18;-21738.97;;;22.10;41.66
7337;BME280;54510;42.016;23.098;2023-04-25T09:14:43;-21748.94;;;22.46;40.85
7337;BME280;54510;42.016;23.098;2023-04-25T09:17:25;-21755.91;;;22.72;42.60
7337;BME280;54510;42.016;23.098;2023-04-25T09:19:51;-21766.16;;;23.10;41.00
7337;BME280;54510;42.016;23.098;2023-04-25T09:22:16;-21757.97;;;22.80;39.03
7337;BME280;54510;42.016;23.098;2023-04-25T09:24:43;-21767.94;;;23.17;40.32
7337;BME280;54510;42.016;23.098;2023-04-25T09:27:11;-21771.63;;;23.31;40.80
7337;BME280;54510;42.016;23.098;2023-04-25T09:29:39;-21777.50;;;23.52;39.89
7337;BME280;54510;42.016;23.098;2023-04-25T09:32:21;-21767.38;;;23.15;38.19
7337;BME280;54510;42.016;23.098;2023-04-25T09:34:54;-21765.34;;;23.07;38.96
7337;BME280;54510;42.016;23.098;2023-04-25T09:37:29;-21782.13;;;23.70;39.57
7337;BME280;54510;42.016;23.098;2023-04-25T09:39:55;-21791.13;;;24.03;37.99
7337;BME280;54510;42.016;23.098;2023-04-25T09:42:24;-21788.81;;;23.94;37.16
7337;BME280;54510;42.016;23.098;2023-04-25T09:44:51;-21793.03;;;24.10;36.86
7337;BME280;54510;42.016;23.098;2023-04-25T09:47:17;-21796.06;;;24.21;36.66
7337;BME280;54510;42.016;23.098;2023-04-25T09:49:42;-21798.09;;;24.29;37.53
7337;BME280;54510;42.016;23.098;2023-04-25T09:52:09;-21806.69;;;24.61;36.31
7337;BME280;54510;42.016;23.098;2023-04-25T09:54:34;-21787.06;;;23.88;37.11
7337;BME280;54510;42.016;23.098;2023-04-25T09:57:06;-21791.53;;;24.05;37.45
7337;BME280;54510;42.016;23.098;2023-04-25T09:59:36;-21797.56;;;24.27;36.09
7337;BME280;54510;42.016;23.098;2023-04-25T10:02:03;-21795.38;;;24.19;35.35
7337;BME280;54510;42.016;23.098;2023-04-25T10:04:28;-21789.91;;;23.98;35.96
7337;BME280;54510;42.016;23.098;2023-04-25T10:06:55;-21796.88;;;24.24;36.63
7337;BME280;54510;42.016;23.098;2023-04-25T10:09:21;-21784.03;;;23.77;36.94
7337;BME280;54510;42.016;23.098;2023-04-25T10:11:49;-21779.81;;;23.61;36.78
7337;BME280;54510;42.016;23.098;2023-04-25T10:14:16;-21771.22;;;23.29;38.71
7337;BME280;54510;42.016;23.098;2023-04-25T10:16:41;-21696.25;;;20.52;41.95
7337;BME280;54510;42.016;23.098;2023-04-25T10:19:07;-21701.06;;;20.69;42.43
7337;BME280;54510;42.016;23.098;2023-04-25T10:21:32;-21721.03;;;21.43;42.84
7337;BME280;54510;42.016;23.098;2023-04-25T10:23:58;-21730.91;;;21.80;42.45
7337;BME280;54510;42.016;23.098;2023-04-25T10:26:24;-21755.50;;;22.71;39.75
7337;BME280;54510;42.016;23.098;2023-04-25T10:31:21;-21758.50;;;22.82;39.93
7337;BME280;54510;42.016;23.098;2023-04-25T10:33:47;-21773.13;;;23.36;39.14
7337;BME280;54510;42.016;23.098;2023-04-25T10:36:14;-21762.63;;;22.97;37.34
7337;BME280;54510;42.016;23.098;2023-04-25T10:38:42;-21750.84;;;22.54;37.33
7337;BME280;54510;42.016;23.098;2023-04-25T10:41:08;-21749.22;;;22.48;37.25
7337;BME280;54510;42.016;23.098;2023-04-25T10:43:38;-21755.78;;;22.72;38.21
7337;BME280;54510;42.016;23.098;2023-04-25T10:48:38;-21743.75;;;22.27;38.54
7337;BME280;54510;42.016;23.098;2023-04-25T10:51:12;-21740.06;;;22.14;40.49
7337;BME280;54510;42.016;23.098;2023-04-25T10:53:40;-21763.44;;;23.00;36.98
7337;BME280;54510;42.016;23.098;2023-04-25T10:56:09;-21750.59;;;22.53;36.61
7337;BME280;54510;42.016;23.098;2023-04-25T10:58:35;-21774.91;;;23.43;37.44
7337;BME280;54510;42.016;23.098;2023-04-25T11:01:01;-21767.25;;;23.14;35.10
7337;BME280;54510;42.016;23.098;2023-04-25T11:03:26;-21774.63;;;23.42;34.74
7337;BME280;54510;42.016;23.098;2023-04-25T11:05:51;-21785.94;;;23.84;35.65
7337;BME280;54510;42.016;23.098;2023-04-25T11:08:17;-21768.75;;;23.20;36.18
7337;BME280;54510;42.016;23.098;2023-04-25T11:10:48;-21769.72;;;23.23;36.01
7337;BME280;54510;42.016;23.098;2023-04-25T11:13:14;-21765.22;;;23.07;37.44
7337;BME280;54510;42.016;23.098;2023-04-25T11:15:39;-21757.16;;;22.77;38.86
7337;BME280;54510;42.016;23.098;2023-04-25T11:18:05;-21760.03;;;22.88;39.81
7337;BME280;54510;42.016;23.098;2023-04-25T11:20:30;-21769.31;;;23.22;39.11
7337;BME280;54510;42.016;23.098;2023-04-25T11:22:57;-21777.22;;;23.51;38.16
7337;BME280;54510;42.016;23.098;2023-04-25T11:25:25;-21771.34;;;23.30;37.63
7337;BME280;54510;42.016;23.098;2023-04-25T11:27:55;-21761.78;;;22.94;36.45
7337;BME280;54510;42.016;23.098;2023-04-25T11:30:23;-21789.09;;;23.95;36.26
7337;BME280;54510;42.016;23.098;2023-04-25T11:32:49;-21800.00;;;24.36;35.79
7337;BME280;54510;42.016;23.098;2023-04-25T11:35:15;-21813.34;;;24.86;32.85
7337;BME280;54510;42.016;23.098;2023-04-25T11:37:41;-21807.38;;;24.63;32.99
7337;BME280;54510;42.016;23.098;2023-04-25T11:40:07;-21789.09;;;23.95;32.81
7337;BME280;54510;42.016;23.098;2023-04-25T11:42:33;-21802.72;;;24.46;32.92
7337;BME280;54510;42.016;23.098;2023-04-25T11:44:59;-21820.03;;;25.10;31.78
7337;BME280;54510;42.016;23.098;2023-04-25T11:47:31;-21822.47;;;25.19;31.34
7337;BME280;54510;42.016;23.098;2023-04-25T11:49:59;-21813.91;;;24.88;31.38
7337;BME280;54510;42.016;23.098;2023-04-25T11:52:41;-21820.56;;;25.12;31.95
7337;BME280;54510;42.016;23.098;2023-04-25T11:55:12;-21812.53;;;24.83;31.73
7337;BME280;54510;42.016;23.098;2023-04-25T11:57:38;-21811.03;;;24.77;31.13
7337;BME280;54510;42.016;23.098;2023-04-25T12:02:34;-21819.22;;;25.07;31.10
7337;BME280;54510;42.016;23.098;2023-04-25T12:05:00;-21819.22;;;25.07;31.19
7337;BME280;54510;42.016;23.098;2023-04-25T12:07:31;-21801.63;;;24.42;32.38
7337;BME280;54510;42.016;23.098;2023-04-25T12:09:56;-21752.09;;;22.58;38.26
7337;BME280;54510;42.016;23.098;2023-04-25T12:12:26;-21762.88;;;22.98;39.06
7337;BME280;54510;42.016;23.098;2023-04-25T12:14:51;-21763.97;;;23.02;38.52
7337;BME280;54510;42.016;23.098;2023-04-25T12:17:17;-21755.50;;;22.71;37.94
7337;BME280;54510;42.016;23.098;2023-04-25T12:19:42;-21753.47;;;22.63;39.65
7337;BME280;54510;42.016;23.098;2023-04-25T12:22:22;-21738.56;;;22.08;42.17
7337;BME280;54510;42.016;23.098;2023-04-25T12:24:47;-21738.97;;;22.10;42.74
7337;BME280;54510;42.016;23.098;2023-04-25T12:27:14;-21719.13;;;21.36;43.22
7337;BME280;54510;42.016;23.098;2023-04-25T12:29:49;-21727.47;;;21.67;43.32
7337;BME280;54510;42.016;23.098;2023-04-25T12:32:15;-21739.50;;;22.12;41.96
7337;BME280;54510;42.016;23.098;2023-04-25T12:34:41;-21737.19;;;22.03;42.75
7337;BME280;54510;42.016;23.098;2023-04-25T12:37:07;-21680.34;;;19.93;47.06
7337;BME280;54510;42.016;23.098;2023-04-25T12:39:32;-21710.63;;;21.05;45.95
7337;BME280;54510;42.016;23.098;2023-04-25T12:41:57;-21696.53;;;20.53;47.09
7337;BME280;54510;42.016;23.098;2023-04-25T12:44:24;-21694.75;;;20.46;47.40
7337;BME280;54510;42.016;23.098;2023-04-25T12:46:49;-21713.38;;;21.15;46.20
7337;BME280;54510;42.016;23.098;2023-04-25T12:49:15;-21699.00;;;20.62;48.65
7337;BME280;54510;42.016;23.098;2023-04-25T12:51:40;-21706.94;;;20.91;47.21
7337;BME280;54510;42.016;23.098;2023-04-25T12:54:06;-21702.00;;;20.73;47.79
7337;BME280;54510;42.016;23.098;2023-04-25T13:10:27;-21692.69;;;20.38;53.54
7337;BME280;54510;42.016;23.098;2023-04-25T13:12:52;-21684.03;;;20.06;53.85
7337;BME280;54510;42.016;23.098;2023-04-25T13:15:18;-21686.09;;;20.14;54.17
7337;BME280;54510;42.016;23.098;2023-04-25T13:17:43;-21680.63;;;19.94;53.77
7337;BME280;54510;42.016;23.098;2023-04-25T13:20:08;-21668.28;;;19.48;55.83
7337;BME280;54510;42.016;23.098;2023-04-25T13:22:37;-21668.13;;;19.48;55.93
7337;BME280;54510;42.016;23.098;2023-04-25T13:25:04;-21687.19;;;20.18;54.57